Time;durP1;ratioP1;P1;durP2;ratioP2;P2;SDS_P1;SDS_P2;PMS_P1;PMS_P2;Temp;Humidity;BMP_temperature;BMP_pressure;BME280_temperature;BME280_humidity;BME280_pressure;Samples;Min_cycle;Max_cycle;Signal;HPM_P1;HPM_P2
2023/07/07 00:00:33;;;;;;;;;;;;;;;;;;2068324;28;19956;-70
2023/07/07 00:01:54;;;;;;;;;;;;;;;;;;2063108;28;19917;-70
2023/07/07 00:03:15;;;;;;;;;;;;;;;;;;2068562;28;19910;-70
2023/07/07 00:04:35;;;;;;;;;;;;;;;;;;2069086;28;20364;-70
2023/07/07 00:05:56;;;;;;;;;;;;;;;;;;2065244;28;19932;-70
2023/07/07 00:07:17;;;;;;;;;;;;;;;;;;2078626;28;19921;-70
2023/07/07 00:08:37;;;;;;;;;;;;;;;;;;2069416;28;19989;-70
2023/07/07 00:09:58;;;;;;;;;;;;;;;;;;2065741;28;20229;-70
2023/07/07 00:11:19;;;;;;;;;;;;;;;;;;2076491;28;19925;-70
2023/07/07 00:12:39;;;;;;;;;;;;;;;;;;2067596;28;19995;-70
2023/07/07 00:14:00;;;;;;;;;;;;;;;;;;2067810;28;20280;-70
2023/07/07 00:15:21;;;;;;;;;;;;;;;;;;2066321;28;19925;-70
2023/07/07 00:16:41;;;;;;;;;;;;;;;;;;2067058;28;19913;-70
2023/07/07 00:18:03;;;;;;;;;;;;;;;;;;2068995;28;19963;-70
2023/07/07 00:19:24;;;;;;;;;;;;;;;;;;2081706;28;20007;-70
2023/07/07 00:20:44;;;;;;;;;;;;;;;;;;2072238;28;19906;-70
2023/07/07 00:22:06;;;;;;;;;;;;;;;;;;2076473;28;19921;-70
2023/07/07 00:23:26;;;;;;;;;;;;;;;;;;2064714;28;20407;-70
2023/07/07 00:24:47;;;;;;;;;;;;;;;;;;2061882;28;19910;-70
2023/07/07 00:26:08;;;;;;;;;;;;;;;;;;2076180;28;19917;-70
2023/07/07 00:27:28;;;;;;;;;;;;;;;;;;2064080;28;20392;-70
2023/07/07 00:28:49;;;;;;;;;;;;;;;;;;2056834;28;19918;-70
2023/07/07 00:30:10;;;;;;;;;;;;;;;;;;2061849;28;19910;-70
2023/07/07 00:31:30;;;;;;;;;;;;;;;;;;2075503;28;19917;-70
2023/07/07 00:32:51;;;;;;;;;;;;;;;;;;2072508;28;19989;-70
2023/07/07 00:34:12;;;;;;;;;;;;;;;;;;2081307;28;19909;-70
2023/07/07 00:35:32;;;;;;;;;;;;;;;;;;2069683;28;20348;-70
2023/07/07 00:36:53;;;;;;;;;;;;;;;;;;2066354;28;19917;-70
2023/07/07 00:38:14;;;;;;;;;;;;;;;;;;2082838;28;19916;-70
2023/07/07 00:39:34;;;;;;;;;;;;;;;;;;2069813;28;20467;-70
2023/07/07 00:40:55;;;;;;;;;;;;;;;;;;2075351;28;19917;-70
2023/07/07 00:42:16;;;;;;;;;;;;;;;;;;2071336;28;20376;-70
2023/07/07 00:43:37;;;;;;;;;;;;;;;;;;2069944;28;20264;-70
2023/07/07 00:44:57;;;;;;;;;;;;;;;;;;2066219;28;19997;-70
2023/07/07 00:46:18;;;;;;;;;;;;;;;;;;2063175;28;20431;-70
2023/07/07 00:47:39;;;;;;;;;;;;;;;;;;2065187;28;19980;-70
2023/07/07 00:48:59;;;;;;;;;;;;;;;;;;2077209;28;20399;-70
2023/07/07 00:50:20;;;;;;;;;;;;;;;;;;2068836;28;19906;-70
2023/07/07 00:51:41;;;;;;;;;;;;;;;;;;2065400;28;19906;-70
2023/07/07 00:53:01;;;;;;;;;;;;;;;;;;2068535;28;19975;-70
2023/07/07 00:54:22;;;;;;;;;;;;;;;;;;2059402;28;19910;-70
2023/07/07 00:55:43;;;;;;;;;;;;;;;;;;2051783;28;20640;-70
2023/07/07 00:57:03;;;;;;;;;;;;;;;;;;2052433;28;19918;-70
2023/07/07 00:58:24;;;;;;;;;;;;;;;;;;2068822;28;19919;-70
2023/07/07 00:59:45;;;;;;;;;;;;;;;;;;2058011;28;19910;-70
2023/07/07 01:01:06;;;;;;;;;;;;;;;;;;2054008;28;19968;-70
2023/07/07 01:02:26;;;;;;;;;;;;;;;;;;2070152;28;19993;-70
2023/07/07 01:03:47;;;;;;;;;;;;;;;;;;2065745;28;19913;-70
2023/07/07 01:05:08;;;;;;;;;;;;;;;;;;2074904;28;20378;-70
2023/07/07 01:06:28;;;;;;;;;;;;;;;;;;2067475;28;19917;-70
2023/07/07 01:07:52;;;;;;;;;;;;;;;;;;2063393;28;19989;-70
2023/07/07 01:09:12;;;;;;;;;;;;;;;;;;2062636;28;20452;-70
2023/07/07 01:10:33;;;;;;;;;;;;;;;;;;2065237;28;19917;-70
2023/07/07 01:11:54;;;;;;;;;;;;;;;;;;2061167;28;19996;-70
2023/07/07 01:13:15;;;;;;;;;;;;;;;;;;2077929;28;20358;-70
2023/07/07 01:14:35;;;;;;;;;;;;;;;;;;2066943;28;19913;-70
2023/07/07 01:15:56;;;;;;;;;;;;;;;;;;2078055;28;20327;-70
2023/07/07 01:17:17;;;;;;;;;;;;;;;;;;2068248;28;20485;-70
2023/07/07 01:18:38;;;;;;;;;;;;;;;;;;2064933;28;20328;-69
2023/07/07 01:19:59;;;;;;;;;;;;;;;;;;2067573;28;21776;-70
2023/07/07 01:21:20;;;;;;;;;;;;;;;;;;2065682;28;19925;-70
2023/07/07 01:22:40;;;;;;;;;;;;;;;;;;2060965;28;19988;-70
2023/07/07 01:24:02;;;;;;;;;;;;;;;;;;2078931;28;19909;-70
2023/07/07 01:25:22;;;;;;;;;;;;;;;;;;2070864;28;20261;-70
2023/07/07 01:26:43;;;;;;;;;;;;;;;;;;2072234;28;19920;-70
2023/07/07 01:28:07;;;;;;;;;;;;;;;;;;2062703;28;19926;-70
2023/07/07 01:29:28;;;;;;;;;;;;;;;;;;2065024;28;19917;-70
2023/07/07 01:30:48;;;;;;;;;;;;;;;;;;2069838;28;19928;-69
2023/07/07 01:32:09;;;;;;;;;;;;;;;;;;2078359;28;20449;-71
2023/07/07 01:33:30;;;;;;;;;;;;;;;;;;2068356;28;20292;-70
2023/07/07 01:34:50;;;;;;;;;;;;;;;;;;2058772;28;19917;-70
2023/07/07 01:36:11;;;;;;;;;;;;;;;;;;2064119;28;19910;-70
2023/07/07 01:37:32;;;;;;;;;;;;;;;;;;2079588;28;19928;-70
2023/07/07 01:38:52;;;;;;;;;;;;;;;;;;2073375;28;19941;-71
2023/07/07 01:40:13;;;;;;;;;;;;;;;;;;2078998;28;19916;-71
2023/07/07 01:41:34;;;;;;;;;;;;;;;;;;2070219;28;19996;-70
2023/07/07 01:42:55;;;;;;;;;;;;;;;;;;2063423;28;19921;-71
2023/07/07 01:44:15;;;;;;;;;;;;;;;;;;2067150;28;20381;-71
2023/07/07 01:45:36;;;;;;;;;;;;;;;;;;2065525;28;19993;-71
2023/07/07 01:46:57;;;;;;;;;;;;;;;;;;2065368;28;19909;-70
2023/07/07 01:48:17;;;;;;;;;;;;;;;;;;2063347;28;19909;-70
2023/07/07 01:49:38;;;;;;;;;;;;;;;;;;2061730;28;19968;-71
2023/07/07 01:50:59;;;;;;;;;;;;;;;;;;2063830;28;20260;-71
2023/07/07 01:52:19;;;;;;;;;;;;;;;;;;2068492;28;19917;-71
2023/07/07 01:53:40;;;;;;;;;;;;;;;;;;2054717;28;19941;-71
2023/07/07 01:55:01;;;;;;;;;;;;;;;;;;2059095;28;19914;-71
2023/07/07 01:56:21;;;;;;;;;;;;;;;;;;2069865;28;19918;-71
2023/07/07 01:57:42;;;;;;;;;;;;;;;;;;2064129;28;19910;-71
2023/07/07 01:59:03;;;;;;;;;;;;;;;;;;2054561;28;19910;-71
2023/07/07 02:00:24;;;;;;;;;;;;;;;;;;2070030;28;19917;-71
2023/07/07 02:01:45;;;;;;;;;;;;;;;;;;2060333;28;19965;-71
2023/07/07 02:03:05;;;;;;;;;;;;;;;;;;2060675;28;19917;-70
2023/07/07 02:04:26;;;;;;;;;;;;;;;;;;2059670;28;19922;-71
2023/07/07 02:05:47;;;;;;;;;;;;;;;;;;2056561;28;19964;-70
2023/07/07 02:07:07;;;;;;;;;;;;;;;;;;2055608;28;19954;-71
2023/07/07 02:08:28;;;;;;;;;;;;;;;;;;2074044;28;20296;-70
2023/07/07 02:09:49;;;;;;;;;;;;;;;;;;2061977;28;19991;-71
2023/07/07 02:11:10;;;;;;;;;;;;;;;;;;2056856;28;19973;-70
2023/07/07 02:12:30;;;;;;;;;;;;;;;;;;2072142;28;19921;-70
2023/07/07 02:13:51;;;;;;;;;;;;;;;;;;2059198;28;19972;-70
2023/07/07 02:15:12;;;;;;;;;;;;;;;;;;2055483;28;19910;-70
2023/07/07 02:16:32;;;;;;;;;;;;;;;;;;2056570;28;19910;-70
2023/07/07 02:17:53;;;;;;;;;;;;;;;;;;2075180;28;20414;-70
2023/07/07 02:19:14;;;;;;;;;;;;;;;;;;2058597;28;19914;-70
2023/07/07 02:20:34;;;;;;;;;;;;;;;;;;2056909;28;20591;-71
2023/07/07 02:21:55;;;;;;;;;;;;;;;;;;2057201;28;19918;-70
2023/07/07 02:23:16;;;;;;;;;;;;;;;;;;2057772;28;19997;-71
2023/07/07 02:24:36;;;;;;;;;;;;;;;;;;2061259;28;19922;-71
2023/07/07 02:25:57;;;;;;;;;;;;;;;;;;2058238;28;20340;-71
2023/07/07 02:27:18;;;;;;;;;;;;;;;;;;2056687;28;19918;-70
2023/07/07 02:28:39;;;;;;;;;;;;;;;;;;2058298;28;20332;-70
2023/07/07 02:29:59;;;;;;;;;;;;;;;;;;2056419;28;19918;-70
2023/07/07 02:31:24;;;;;;;;;;;;;;;;;;2060421;28;19916;-70
2023/07/07 02:32:45;;;;;;;;;;;;;;;;;;2072557;28;19967;-70
2023/07/07 02:34:05;;;;;;;;;;;;;;;;;;2067629;28;20436;-70
2023/07/07 02:35:26;;;;;;;;;;;;;;;;;;2071817;28;20256;-68
2023/07/07 02:36:47;;;;;;;;;;;;;;;;;;2061893;28;19991;-69
2023/07/07 02:38:07;;;;;;;;;;;;;;;;;;2061417;28;19910;-68
2023/07/07 02:39:28;;;;;;;;;;;;;;;;;;2059023;28;19917;-68
2023/07/07 02:40:49;;;;;;;;;;;;;;;;;;2055618;28;19925;-68
2023/07/07 02:42:09;;;;;;;;;;;;;;;;;;2057572;28;19929;-68
2023/07/07 02:43:30;;;;;;;;;;;;;;;;;;2076805;28;20328;-68
2023/07/07 02:44:51;;;;;;;;;;;;;;;;;;2071582;28;19932;-68
2023/07/07 02:46:11;;;;;;;;;;;;;;;;;;2064386;28;20309;-68
2023/07/07 02:47:32;;;;;;;;;;;;;;;;;;2081832;28;19909;-73
2023/07/07 02:48:53;;;;;;;;;;;;;;;;;;2068632;28;19909;-74
2023/07/07 02:50:13;;;;;;;;;;;;;;;;;;2064161;28;19913;-73
2023/07/07 02:51:34;;;;;;;;;;;;;;;;;;2063941;28;19909;-73
2023/07/07 02:52:55;;;;;;;;;;;;;;;;;;2066219;28;19922;-73
2023/07/07 02:54:16;;;;;;;;;;;;;;;;;;2063033;28;19914;-73
2023/07/07 02:55:36;;;;;;;;;;;;;;;;;;2066980;28;20472;-73
2023/07/07 02:56:57;;;;;;;;;;;;;;;;;;2076469;28;19929;-73
2023/07/07 02:58:18;;;;;;;;;;;;;;;;;;2070116;28;19940;-73
2023/07/07 02:59:38;;;;;;;;;;;;;;;;;;2074238;28;19917;-73
2023/07/07 03:00:59;;;;;;;;;;;;;;;;;;2070076;28;19918;-73
2023/07/07 03:02:20;;;;;;;;;;;;;;;;;;2064484;28;19910;-72
2023/07/07 03:03:40;;;;;;;;;;;;;;;;;;2079847;28;19921;-73
2023/07/07 03:05:01;;;;;;;;;;;;;;;;;;2076239;28;19928;-73
2023/07/07 03:06:22;;;;;;;;;;;;;;;;;;2064513;28;19917;-73
2023/07/07 03:07:43;;;;;;;;;;;;;;;;;;2080812;28;19917;-73
2023/07/07 03:09:03;;;;;;;;;;;;;;;;;;2070113;28;19918;-73
2023/07/07 03:10:24;;;;;;;;;;;;;;;;;;2080569;28;20609;-73
2023/07/07 03:11:45;;;;;;;;;;;;;;;;;;2073555;28;19910;-73
2023/07/07 03:13:05;;;;;;;;;;;;;;;;;;2077754;28;19921;-73
2023/07/07 03:14:26;;;;;;;;;;;;;;;;;;2062625;28;19910;-73
2023/07/07 03:15:47;;;;;;;;;;;;;;;;;;2057857;28;19918;-74
2023/07/07 03:17:08;;;;;;;;;;;;;;;;;;2056359;28;20256;-73
2023/07/07 03:18:29;;;;;;;;;;;;;;;;;;2057618;28;19918;-73
2023/07/07 03:19:50;;;;;;;;;;;;;;;;;;2058029;28;19910;-73
2023/07/07 03:21:10;;;;;;;;;;;;;;;;;;2070278;28;20341;-73
2023/07/07 03:22:31;;;;;;;;;;;;;;;;;;2060158;28;19909;-73
2023/07/07 03:23:52;;;;;;;;;;;;;;;;;;2056725;28;19937;-73
2023/07/07 03:25:13;;;;;;;;;;;;;;;;;;2061999;28;20578;-73
2023/07/07 03:26:33;;;;;;;;;;;;;;;;;;2075074;28;20159;-73
2023/07/07 03:27:54;;;;;;;;;;;;;;;;;;2058450;28;19914;-72
2023/07/07 03:29:15;;;;;;;;;;;;;;;;;;2053257;28;19925;-73
2023/07/07 03:30:35;;;;;;;;;;;;;;;;;;2059817;28;19998;-73
2023/07/07 03:31:56;;;;;;;;;;;;;;;;;;2065555;28;19906;-73
2023/07/07 03:33:17;;;;;;;;;;;;;;;;;;2052691;28;19918;-73
2023/07/07 03:34:37;;;;;;;;;;;;;;;;;;2054541;28;19917;-72
2023/07/07 03:35:58;;;;;;;;;;;;;;;;;;2066752;28;19909;-72
2023/07/07 03:37:19;;;;;;;;;;;;;;;;;;2059717;28;20016;-73
2023/07/07 03:38:40;;;;;;;;;;;;;;;;;;2055813;28;19906;-73
2023/07/07 03:40:01;;;;;;;;;;;;;;;;;;2055863;28;19910;-72
2023/07/07 03:41:21;;;;;;;;;;;;;;;;;;2058087;28;19906;-72
2023/07/07 03:42:42;;;;;;;;;;;;;;;;;;2055123;28;19917;-72
2023/07/07 03:44:03;;;;;;;;;;;;;;;;;;2063191;28;19913;-74
2023/07/07 03:45:23;;;;;;;;;;;;;;;;;;2065204;28;20181;-74
2023/07/07 03:46:44;;;;;;;;;;;;;;;;;;2063063;28;19920;-73
2023/07/07 03:48:05;;;;;;;;;;;;;;;;;;2080526;28;19913;-73
2023/07/07 03:49:25;;;;;;;;;;;;;;;;;;2074024;28;19940;-74
2023/07/07 03:50:46;;;;;;;;;;;;;;;;;;2066227;28;19921;-74
2023/07/07 03:52:07;;;;;;;;;;;;;;;;;;2065387;28;19925;-73
2023/07/07 03:53:27;;;;;;;;;;;;;;;;;;2064947;28;19910;-73
2023/07/07 03:54:48;;;;;;;;;;;;;;;;;;2065264;28;19917;-73
2023/07/07 03:56:09;;;;;;;;;;;;;;;;;;2065486;28;20284;-73
2023/07/07 03:57:29;;;;;;;;;;;;;;;;;;2066621;28;19922;-73
2023/07/07 03:58:50;;;;;;;;;;;;;;;;;;2062169;28;19973;-72
2023/07/07 04:00:11;;;;;;;;;;;;;;;;;;2071885;28;19917;-73
2023/07/07 04:01:32;;;;;;;;;;;;;;;;;;2073406;28;19925;-73
2023/07/07 04:02:53;;;;;;;;;;;;;;;;;;2065296;28;20327;-72
2023/07/07 04:04:13;;;;;;;;;;;;;;;;;;2081730;28;19997;-72
2023/07/07 04:05:34;;;;;;;;;;;;;;;;;;2072843;28;20355;-73
2023/07/07 04:06:55;;;;;;;;;;;;;;;;;;2062004;28;19913;-73
2023/07/07 04:08:21;;;;;;;;;;;;;;;;;;2066501;28;19917;-73
2023/07/07 04:09:42;;;;;;;;;;;;;;;;;;2066299;28;19913;-73
2023/07/07 04:11:03;;;;;;;;;;;;;;;;;;2075472;28;19909;-73
2023/07/07 04:12:24;;;;;;;;;;;;;;;;;;2068291;28;19917;-73
2023/07/07 04:13:44;;;;;;;;;;;;;;;;;;2062165;28;19922;-73
2023/07/07 04:15:05;;;;;;;;;;;;;;;;;;2058654;28;19938;-73
2023/07/07 04:16:26;;;;;;;;;;;;;;;;;;2070862;28;19909;-73
2023/07/07 04:17:46;;;;;;;;;;;;;;;;;;2060870;28;19980;-73
2023/07/07 04:19:07;;;;;;;;;;;;;;;;;;2074039;28;20387;-73
2023/07/07 04:20:28;;;;;;;;;;;;;;;;;;2064126;28;19918;-73
2023/07/07 04:21:49;;;;;;;;;;;;;;;;;;2051563;28;19918;-73
2023/07/07 04:23:09;;;;;;;;;;;;;;;;;;2070826;28;19945;-73
2023/07/07 04:24:30;;;;;;;;;;;;;;;;;;2059730;28;19925;-73
2023/07/07 04:25:51;;;;;;;;;;;;;;;;;;2054758;28;19918;-74
2023/07/07 04:27:11;;;;;;;;;;;;;;;;;;2056563;28;20592;-73
2023/07/07 04:28:32;;;;;;;;;;;;;;;;;;2068835;28;19925;-73
2023/07/07 04:29:53;;;;;;;;;;;;;;;;;;2056977;28;19914;-73
2023/07/07 04:31:13;;;;;;;;;;;;;;;;;;2050392;28;20016;-73
2023/07/07 04:32:34;;;;;;;;;;;;;;;;;;2055615;28;19918;-73
2023/07/07 04:33:55;;;;;;;;;;;;;;;;;;2062437;28;19917;-73
2023/07/07 04:35:16;;;;;;;;;;;;;;;;;;2054294;28;21505;-73
2023/07/07 04:36:36;;;;;;;;;;;;;;;;;;2058285;28;19968;-74
2023/07/07 04:37:57;;;;;;;;;;;;;;;;;;2056943;28;19922;-74
2023/07/07 04:39:18;;;;;;;;;;;;;;;;;;2069644;28;20292;-73
2023/07/07 04:40:38;;;;;;;;;;;;;;;;;;2059261;28;19914;-73
2023/07/07 04:41:59;;;;;;;;;;;;;;;;;;2060225;28;19958;-73
2023/07/07 04:43:20;;;;;;;;;;;;;;;;;;2059209;28;19913;-73
2023/07/07 04:44:40;;;;;;;;;;;;;;;;;;2058108;28;19922;-74
2023/07/07 04:46:01;;;;;;;;;;;;;;;;;;2072481;28;19912;-73
2023/07/07 04:47:22;;;;;;;;;;;;;;;;;;2064278;28;19910;-74
2023/07/07 04:48:42;;;;;;;;;;;;;;;;;;2056728;28;19925;-74
2023/07/07 04:50:03;;;;;;;;;;;;;;;;;;2060434;28;19918;-73
2023/07/07 04:51:24;;;;;;;;;;;;;;;;;;2057064;28;19914;-73
2023/07/07 04:52:44;;;;;;;;;;;;;;;;;;2061227;28;19941;-73
2023/07/07 04:54:05;;;;;;;;;;;;;;;;;;2075104;28;20281;-73
2023/07/07 04:55:26;;;;;;;;;;;;;;;;;;2064391;28;19973;-73
2023/07/07 04:56:47;;;;;;;;;;;;;;;;;;2060833;28;19918;-73
2023/07/07 04:58:08;;;;;;;;;;;;;;;;;;2059092;28;19910;-74
2023/07/07 04:59:28;;;;;;;;;;;;;;;;;;2058867;28;19925;-73
2023/07/07 05:00:49;;;;;;;;;;;;;;;;;;2058317;28;20404;-73
2023/07/07 05:02:10;;;;;;;;;;;;;;;;;;2074112;28;19933;-73
2023/07/07 05:03:30;;;;;;;;;;;;;;;;;;2062508;28;19918;-73
2023/07/07 05:04:51;;;;;;;;;;;;;;;;;;2058363;28;20360;-73
2023/07/07 05:06:12;;;;;;;;;;;;;;;;;;2055243;28;19965;-73
2023/07/07 05:07:33;;;;;;;;;;;;;;;;;;2058009;28;19914;-73
2023/07/07 05:08:53;;;;;;;;;;;;;;;;;;2060122;28;20083;-73
2023/07/07 05:10:14;;;;;;;;;;;;;;;;;;2055419;28;20278;-72
2023/07/07 05:11:35;;;;;;;;;;;;;;;;;;2054857;28;19911;-73
2023/07/07 05:12:55;;;;;;;;;;;;;;;;;;2054684;28;19937;-73
2023/07/07 05:14:16;;;;;;;;;;;;;;;;;;2056061;28;19945;-73
2023/07/07 05:15:37;;;;;;;;;;;;;;;;;;2055061;28;19916;-73
2023/07/07 05:16:57;;;;;;;;;;;;;;;;;;2052525;28;20277;-73
2023/07/07 05:18:18;;;;;;;;;;;;;;;;;;2057809;28;20273;-73
2023/07/07 05:19:39;;;;;;;;;;;;;;;;;;2055615;28;19990;-73
2023/07/07 05:21:00;;;;;;;;;;;;;;;;;;2058790;28;19920;-73
2023/07/07 05:22:22;;;;;;;;;;;;;;;;;;2055830;28;19910;-73
2023/07/07 05:23:42;;;;;;;;;;;;;;;;;;2073430;28;19924;-73
2023/07/07 05:25:03;;;;;;;;;;;;;;;;;;2064182;28;19922;-72
2023/07/07 05:26:27;;;;;;;;;;;;;;;;;;2058315;28;19973;-73
2023/07/07 05:27:47;;;;;;;;;;;;;;;;;;2057316;28;19914;-73
2023/07/07 05:29:08;;;;;;;;;;;;;;;;;;2064101;28;19918;-72
2023/07/07 05:30:29;;;;;;;;;;;;;;;;;;2072991;28;19921;-72
2023/07/07 05:31:50;;;;;;;;;;;;;;;;;;2061716;28;19914;-73
2023/07/07 05:33:10;;;;;;;;;;;;;;;;;;2050313;29;19914;-73
2023/07/07 05:34:31;;;;;;;;;;;;;;;;;;2062068;28;19917;-73
2023/07/07 05:35:52;;;;;;;;;;;;;;;;;;2070546;28;19917;-73
2023/07/07 05:37:12;;;;;;;;;;;;;;;;;;2065858;28;19914;-73
2023/07/07 05:38:33;;;;;;;;;;;;;;;;;;2063201;28;19982;-73
2023/07/07 05:39:54;;;;;;;;;;;;;;;;;;2066453;28;20121;-73
2023/07/07 05:41:14;;;;;;;;;;;;;;;;;;2065924;28;20427;-73
2023/07/07 05:42:35;;;;;;;;;;;;;;;;;;2064571;28;19989;-73
2023/07/07 05:43:56;;;;;;;;;;;;;;;;;;2085258;28;19909;-73
2023/07/07 05:45:16;;;;;;;;;;;;;;;;;;2065649;28;19929;-73
2023/07/07 05:46:37;;;;;;;;;;;;;;;;;;2074977;28;19983;-72
2023/07/07 05:47:58;;;;;;;;;;;;;;;;;;2063867;28;19957;-73
2023/07/07 05:49:18;;;;;;;;;;;;;;;;;;2055031;28;20389;-73
2023/07/07 05:50:39;;;;;;;;;;;;;;;;;;2057711;28;19906;-73
2023/07/07 05:52:00;;;;;;;;;;;;;;;;;;2056605;28;20009;-73
2023/07/07 05:53:21;;;;;;;;;;;;;;;;;;2064682;28;19913;-73
2023/07/07 05:54:41;;;;;;;;;;;;;;;;;;2063209;28;20349;-73
2023/07/07 05:56:08;;;;;;;;;;;;;;;;;;2064392;28;20448;-73
2023/07/07 05:57:29;;;;;;;;;;;;;;;;;;2082735;28;19916;-73
2023/07/07 05:58:50;;;;;;;;;;;;;;;;;;2072623;28;19909;-72
2023/07/07 06:00:10;;;;;;;;;;;;;;;;;;2065036;28;19965;-73
2023/07/07 06:01:31;;;;;;;;;;;;;;;;;;2066881;28;19913;-73
2023/07/07 06:02:52;;;;;;;;;;;;;;;;;;2071975;28;19910;-73
2023/07/07 06:04:12;;;;;;;;;;;;;;;;;;2066025;28;19920;-73
2023/07/07 06:05:33;;;;;;;;;;;;;;;;;;2080411;28;20237;-72
2023/07/07 06:06:54;;;;;;;;;;;;;;;;;;2072491;28;19921;-73
2023/07/07 06:08:15;;;;;;;;;;;;;;;;;;2069350;28;19925;-73
2023/07/07 06:09:35;;;;;;;;;;;;;;;;;;2078423;28;19909;-72
2023/07/07 06:10:56;;;;;;;;;;;;;;;;;;2070022;28;20313;-72
2023/07/07 06:12:17;;;;;;;;;;;;;;;;;;2060512;28;19913;-72
2023/07/07 06:13:37;;;;;;;;;;;;;;;;;;2067874;28;19909;-73
2023/07/07 06:14:58;;;;;;;;;;;;;;;;;;2065578;28;19971;-73
2023/07/07 06:16:19;;;;;;;;;;;;;;;;;;2063516;28;19913;-74
2023/07/07 06:17:40;;;;;;;;;;;;;;;;;;2063255;28;19924;-74
2023/07/07 06:19:02;;;;;;;;;;;;;;;;;;2064352;28;19909;-73
2023/07/07 06:20:22;;;;;;;;;;;;;;;;;;2063859;28;20491;-73
2023/07/07 06:21:43;;;;;;;;;;;;;;;;;;2082175;28;19908;-74
2023/07/07 06:23:05;;;;;;;;;;;;;;;;;;2072239;28;19909;-74
2023/07/07 06:24:26;;;;;;;;;;;;;;;;;;2061735;28;20257;-73
2023/07/07 06:25:47;;;;;;;;;;;;;;;;;;2065032;28;19925;-73
2023/07/07 06:27:08;;;;;;;;;;;;;;;;;;2066845;28;19917;-73
2023/07/07 06:28:29;;;;;;;;;;;;;;;;;;2065290;28;20340;-74
2023/07/07 06:29:49;;;;;;;;;;;;;;;;;;2082306;28;19909;-73
2023/07/07 06:31:10;;;;;;;;;;;;;;;;;;2071885;28;19909;-75
2023/07/07 06:32:31;;;;;;;;;;;;;;;;;;2058448;28;19918;-76
2023/07/07 06:33:51;;;;;;;;;;;;;;;;;;2075340;28;19917;-76
2023/07/07 06:35:12;;;;;;;;;;;;;;;;;;2062898;28;19918;-75
2023/07/07 06:36:33;;;;;;;;;;;;;;;;;;2058999;28;19910;-76
2023/07/07 06:37:53;;;;;;;;;;;;;;;;;;2057194;28;19914;-76
2023/07/07 06:39:14;;;;;;;;;;;;;;;;;;2049446;28;19910;-76
2023/07/07 06:40:35;;;;;;;;;;;;;;;;;;2064192;28;20063;-76
2023/07/07 06:41:56;;;;;;;;;;;;;;;;;;2058551;28;20427;-76
2023/07/07 06:43:18;;;;;;;;;;;;;;;;;;2069634;28;19972;-76
2023/07/07 06:44:40;;;;;;;;;;;;;;;;;;2063981;28;19976;-76
2023/07/07 06:46:01;;;;;;;;;;;;;;;;;;2076492;28;20617;-76
2023/07/07 06:47:21;;;;;;;;;;;;;;;;;;2071887;28;19993;-75
2023/07/07 06:48:42;;;;;;;;;;;;;;;;;;2073021;28;20285;-76
2023/07/07 06:50:03;;;;;;;;;;;;;;;;;;2066264;28;19910;-76
2023/07/07 06:51:24;;;;;;;;;;;;;;;;;;2059671;28;20002;-72
2023/07/07 06:52:44;;;;;;;;;;;;;;;;;;2062061;28;20336;-72
2023/07/07 06:54:05;;;;;;;;;;;;;;;;;;2062792;28;19937;-73
2023/07/07 06:55:26;;;;;;;;;;;;;;;;;;2064744;28;19921;-74
2023/07/07 06:56:46;;;;;;;;;;;;;;;;;;2059825;28;20296;-73
2023/07/07 06:58:07;;;;;;;;;;;;;;;;;;2064692;28;19956;-71
2023/07/07 06:59:28;;;;;;;;;;;;;;;;;;2080746;28;19912;-71
2023/07/07 07:00:48;;;;;;;;;;;;;;;;;;2069412;28;19960;-72
2023/07/07 07:02:09;;;;;;;;;;;;;;;;;;2062918;28;19910;-72
2023/07/07 07:03:30;;;;;;;;;;;;;;;;;;2065730;28;19916;-73
2023/07/07 07:04:50;;;;;;;;;;;;;;;;;;2066290;28;19964;-74
2023/07/07 07:06:11;;;;;;;;;;;;;;;;;;2062982;28;19909;-75
2023/07/07 07:07:32;;;;;;;;;;;;;;;;;;2075943;28;20613;-74
2023/07/07 07:08:52;;;;;;;;;;;;;;;;;;2069469;28;19995;-73
2023/07/07 07:10:13;;;;;;;;;;;;;;;;;;2068247;28;19972;-74
2023/07/07 07:11:34;;;;;;;;;;;;;;;;;;2065875;28;20623;-71
2023/07/07 07:12:55;;;;;;;;;;;;;;;;;;2080853;28;19917;-72
2023/07/07 07:14:15;;;;;;;;;;;;;;;;;;2068489;28;19917;-72
2023/07/07 07:15:36;;;;;;;;;;;;;;;;;;2066075;28;19945;-71
2023/07/07 07:16:57;;;;;;;;;;;;;;;;;;2067991;28;19909;-73
2023/07/07 07:18:17;;;;;;;;;;;;;;;;;;2066359;28;20559;-73
2023/07/07 07:19:38;;;;;;;;;;;;;;;;;;2067866;28;19925;-73
2023/07/07 07:20:59;;;;;;;;;;;;;;;;;;2064897;28;20822;-74
2023/07/07 07:22:19;;;;;;;;;;;;;;;;;;2062322;28;19925;-73
2023/07/07 07:23:40;;;;;;;;;;;;;;;;;;2062760;28;19956;-74
2023/07/07 07:25:01;;;;;;;;;;;;;;;;;;2065838;28;19917;-74
2023/07/07 07:26:22;;;;;;;;;;;;;;;;;;2064479;28;20385;-74
2023/07/07 07:27:42;;;;;;;;;;;;;;;;;;2061798;28;19932;-74
2023/07/07 07:29:03;;;;;;;;;;;;;;;;;;2082731;28;19921;-72
2023/07/07 07:30:24;;;;;;;;;;;;;;;;;;2066788;28;19913;-74
2023/07/07 07:31:44;;;;;;;;;;;;;;;;;;2064978;28;20265;-72
2023/07/07 07:33:05;;;;;;;;;;;;;;;;;;2081326;28;19974;-71
2023/07/07 07:34:26;;;;;;;;;;;;;;;;;;2068776;28;19917;-71
2023/07/07 07:35:46;;;;;;;;;;;;;;;;;;2060708;28;19965;-71
2023/07/07 07:37:07;;;;;;;;;;;;;;;;;;2079642;28;19986;-72
2023/07/07 07:38:29;;;;;;;;;;;;;;;;;;2068874;28;19917;-71
2023/07/07 07:39:50;;;;;;;;;;;;;;;;;;2061784;28;19944;-71
2023/07/07 07:41:11;;;;;;;;;;;;;;;;;;2070650;28;20450;-73
2023/07/07 07:42:31;;;;;;;;;;;;;;;;;;2065420;28;20305;-73
2023/07/07 07:43:52;;;;;;;;;;;;;;;;;;2064867;28;20059;-73
2023/07/07 07:45:13;;;;;;;;;;;;;;;;;;2062314;28;19917;-71
2023/07/07 07:46:33;;;;;;;;;;;;;;;;;;2060207;28;20428;-71
2023/07/07 07:47:54;;;;;;;;;;;;;;;;;;2067335;28;19924;-72
2023/07/07 07:49:15;;;;;;;;;;;;;;;;;;2079550;28;20021;-72
2023/07/07 07:50:35;;;;;;;;;;;;;;;;;;2069867;28;19918;-72
2023/07/07 07:51:56;;;;;;;;;;;;;;;;;;2063769;28;20398;-71
2023/07/07 07:53:18;;;;;;;;;;;;;;;;;;2067057;28;19910;-71
2023/07/07 07:54:39;;;;;;;;;;;;;;;;;;2075722;28;20300;-71
2023/07/07 07:55:59;;;;;;;;;;;;;;;;;;2055389;28;19917;-71
2023/07/07 07:57:20;;;;;;;;;;;;;;;;;;2055425;28;19930;-72
2023/07/07 07:58:41;;;;;;;;;;;;;;;;;;2074837;28;19916;-71
2023/07/07 08:00:01;;;;;;;;;;;;;;;;;;2060590;28;19913;-72
2023/07/07 08:01:22;;;;;;;;;;;;;;;;;;2066760;28;20392;-72
2023/07/07 08:02:43;;;;;;;;;;;;;;;;;;2061204;28;19914;-71
2023/07/07 08:04:03;;;;;;;;;;;;;;;;;;2059706;28;19910;-72
2023/07/07 08:05:24;;;;;;;;;;;;;;;;;;2055466;28;20475;-71
2023/07/07 08:06:45;;;;;;;;;;;;;;;;;;2058024;28;20039;-69
2023/07/07 08:08:05;;;;;;;;;;;;;;;;;;2060030;28;19978;-69
2023/07/07 08:09:26;;;;;;;;;;;;;;;;;;2056187;28;19914;-71
2023/07/07 08:10:47;;;;;;;;;;;;;;;;;;2068210;28;19952;-72
2023/07/07 08:12:07;;;;;;;;;;;;;;;;;;2060532;28;19933;-71
2023/07/07 08:13:28;;;;;;;;;;;;;;;;;;2058447;28;19917;-72
2023/07/07 08:14:49;;;;;;;;;;;;;;;;;;2056935;28;19914;-72
2023/07/07 08:16:10;;;;;;;;;;;;;;;;;;2060068;28;19925;-73
2023/07/07 08:17:31;;;;;;;;;;;;;;;;;;2055923;28;19961;-72
2023/07/07 08:18:51;;;;;;;;;;;;;;;;;;2058638;28;19910;-72
2023/07/07 08:20:12;;;;;;;;;;;;;;;;;;2056093;28;19955;-72
2023/07/07 08:21:33;;;;;;;;;;;;;;;;;;2077940;28;20293;-71
2023/07/07 08:22:53;;;;;;;;;;;;;;;;;;2062775;28;19982;-71
2023/07/07 08:24:14;;;;;;;;;;;;;;;;;;2057687;28;19916;-74
2023/07/07 08:25:35;;;;;;;;;;;;;;;;;;2051930;28;20321;-73
2023/07/07 08:26:56;;;;;;;;;;;;;;;;;;2073248;28;19955;-72
2023/07/07 08:28:16;;;;;;;;;;;;;;;;;;2061160;28;19910;-73
2023/07/07 08:29:37;;;;;;;;;;;;;;;;;;2058211;28;20314;-71
2023/07/07 08:30:58;;;;;;;;;;;;;;;;;;2072200;28;19913;-75
2023/07/07 08:32:19;;;;;;;;;;;;;;;;;;2065660;28;19910;-75
2023/07/07 08:33:43;;;;;;;;;;;;;;;;;;2065726;28;19912;-73
2023/07/07 08:35:04;;;;;;;;;;;;;;;;;;2063491;28;19984;-71
2023/07/07 08:36:25;;;;;;;;;;;;;;;;;;2056160;28;19918;-72
2023/07/07 08:37:45;;;;;;;;;;;;;;;;;;2059958;28;19909;-72
2023/07/07 08:39:06;;;;;;;;;;;;;;;;;;2064350;28;19913;-72
2023/07/07 08:40:27;;;;;;;;;;;;;;;;;;2065778;28;20009;-72
2023/07/07 08:41:47;;;;;;;;;;;;;;;;;;2059004;28;20293;-72
2023/07/07 08:43:08;;;;;;;;;;;;;;;;;;2080868;28;19959;-72
2023/07/07 08:44:29;;;;;;;;;;;;;;;;;;2060040;28;19914;-70
2023/07/07 08:45:49;;;;;;;;;;;;;;;;;;2058932;28;19914;-71
2023/07/07 08:47:10;;;;;;;;;;;;;;;;;;2059725;28;19914;-71
2023/07/07 08:48:32;;;;;;;;;;;;;;;;;;2060164;28;19937;-71
2023/07/07 08:49:52;;;;;;;;;;;;;;;;;;2073430;28;19918;-71
2023/07/07 08:51:13;;;;;;;;;;;;;;;;;;2056663;28;19906;-71
2023/07/07 08:52:34;;;;;;;;;;;;;;;;;;2057310;28;19914;-71
2023/07/07 08:53:54;;;;;;;;;;;;;;;;;;2059050;28;19912;-71
2023/07/07 08:55:15;;;;;;;;;;;;;;;;;;2068659;28;19922;-71
2023/07/07 08:56:36;;;;;;;;;;;;;;;;;;2062072;28;19916;-72
2023/07/07 08:57:56;;;;;;;;;;;;;;;;;;2057689;28;19918;-71
2023/07/07 08:59:17;;;;;;;;;;;;;;;;;;2054575;28;20377;-72
2023/07/07 09:00:38;;;;;;;;;;;;;;;;;;2061451;28;19987;-72
2023/07/07 09:01:59;;;;;;;;;;;;;;;;;;2055475;28;19937;-71
2023/07/07 09:03:20;;;;;;;;;;;;;;;;;;2058418;28;19929;-71
2023/07/07 09:04:41;;;;;;;;;;;;;;;;;;2074262;28;19909;-72
2023/07/07 09:06:01;;;;;;;;;;;;;;;;;;2074125;28;19959;-72
2023/07/07 09:07:22;;;;;;;;;;;;;;;;;;2066964;28;19909;-71
2023/07/07 09:08:43;;;;;;;;;;;;;;;;;;2075416;28;20376;-71
2023/07/07 09:10:04;;;;;;;;;;;;;;;;;;2062732;28;19980;-71
2023/07/07 09:11:24;;;;;;;;;;;;;;;;;;2061704;28;20127;-73